Terminal Aerodrome Forecast
Issued by NWS

Home | Current Version | Previous Version | Text Only | Print | Product List | Glossary On
Versions: 1 2 3 4 5 6 7 8 9 10 11 12 13 14 15 16 17 18 19 20 21
000
FTUS46 KHNX 080535
TAFFAT
TAF
KFAT 080535Z 0806/0906 VRB04KT 5SM HZ VCSH OVC070
     FM081100 10008KT 5SM -RA SCT040 OVC060
     FM081600 13011KT P6SM VCSH SCT045 BKN070=

USA.gov is the U.S. government's official web portal to all federal, state and local government web resources and services.